Portada
METAR-TAF:

METAR-TAF

Aeroports :

Binghamton, Nova York, Estats Units d'Amèrica

latitud: 42-12-28N, longitud: 075-58-53W, altitud: 496 m

Observació

L'informe es va fer fa 48 minuts, a les 17:53 UTC
Vent calma
Temperatura 27°C
Humitat 51%
Pressió 1022 hPa
Visibilitat: 16.1 km
Escasses núvols a una alçada de 4900 ft

METAR: KBGM 261753Z 00000KT 10SM FEW049 27/16 A3018 RMK AO2 SLP209 T02720161 10283 20189 58009

Hora: 14:41 (18:41 UTC)

Pronòstic

L'informe es va fer fa 1 hora i 21 minuts, a les 17:20 UTC
Pronòstic vàlid del 26 a les 18 UTC al 27 a les 18 UTC
Vent 3 kt amb direcció variable
Visibilitat: 10 km
Cel clar
A partir de les 27 a les 1600 UTC
Vent 6 kt del Sud
Visibilitat: 10 km
Núvols disperses a una alçada de 9000 ft

TAF: KBGM 261720Z 2618/2718 VRB03KT P6SM SKC FM271600 18006KT P6SM SCT090

Observacions i pronòstics meteorològics de més de 4000 aeroports (METAR i TAF).

Les estacions disponibles són els punts grocs i vermells al mapa.

Posi el ratolí al punt desitjat per veure el nom de l'estació.

Feu clic per veure les observacions i els pronòstics meteorològics.

Per canviar el mapa: feu clic els botons verds amb una creu de color negre per apropar; al botó verd amb un guió per allunyar la imatge; o en les fletxes verdes per a mapes adjacents.


METAR-TAF: